Time;durP1;ratioP1;P1;durP2;ratioP2;P2;SDS_P1;SDS_P2;PMS_P1;PMS_P2;Temp;Humidity;BMP_temperature;BMP_pressure;BME280_temperature;BME280_humidity;BME280_pressure;Samples;Min_cycle;Max_cycle;Signal;HPM_P1;HPM_P2
2022/09/07 00:02:00;;;;;;;4.40;3.23;;;21.20;99.90;;;;;;5074292;28;20465;-57
2022/09/07 00:04:28;;;;;;;5.03;3.30;;;21.10;99.90;;;;;;5074039;28;20784;-57
2022/09/07 00:06:55;;;;;;;4.93;3.10;;;21.20;99.90;;;;;;5074094;28;20444;-57
2022/09/07 00:09:22;;;;;;;2.97;2.67;;;21.20;99.90;;;;;;5074315;28;20470;-57
2022/09/07 00:11:51;;;;;;;8.07;2.77;;;21.30;99.90;;;;;;5073745;28;20487;-56
2022/09/07 00:14:18;;;;;;;6.90;3.33;;;21.30;99.90;;;;;;5074188;28;20539;-57
2022/09/07 00:16:45;;;;;;;6.70;3.03;;;21.30;99.90;;;;;;5074036;28;20527;-57
2022/09/07 00:19:12;;;;;;;4.33;3.10;;;21.30;99.90;;;;;;5074177;28;20554;-56
2022/09/07 00:21:40;;;;;;;3.60;3.00;;;21.20;99.90;;;;;;5073818;28;20527;-57
2022/09/07 00:24:07;;;;;;;4.17;3.07;;;21.30;99.90;;;;;;5074596;28;20544;-56
2022/09/07 00:26:34;;;;;;;4.50;2.73;;;21.30;99.90;;;;;;5074031;28;20542;-57
2022/09/07 00:29:05;;;;;;;3.30;3.00;;;21.40;99.90;;;;;;5074188;28;20448;-58
2022/09/07 00:31:32;;;;;;;3.33;3.03;;;21.50;99.90;;;;;;5073892;28;20533;-57
2022/09/07 00:34:01;;;;;;;4.67;3.40;;;21.50;99.90;;;;;;5073988;28;20784;-58
2022/09/07 00:36:29;;;;;;;3.70;2.87;;;21.50;99.90;;;;;;5073935;28;20578;-57
2022/09/07 00:38:57;;;;;;;4.67;2.80;;;21.60;99.90;;;;;;5073797;28;20444;-57
2022/09/07 00:41:25;;;;;;;3.10;2.80;;;21.60;99.90;;;;;;5073764;28;20564;-56
2022/09/07 00:43:53;;;;;;;3.53;2.63;;;21.50;99.90;;;;;;5073534;28;20530;-57
2022/09/07 00:46:24;;;;;;;5.07;2.63;;;21.60;99.90;;;;;;5073923;28;20531;-57
2022/09/07 00:48:57;;;;;;;2.60;2.40;;;21.60;99.90;;;;;;5073496;28;20499;-56
2022/09/07 00:51:29;;;;;;;4.83;3.17;;;21.70;99.90;;;;;;5073506;28;20559;-57
2022/09/07 00:53:59;;;;;;;2.57;2.37;;;21.70;99.90;;;;;;5073269;28;20433;-57
2022/09/07 00:56:31;;;;;;;5.40;3.07;;;21.60;99.90;;;;;;5073800;28;20433;-56
2022/09/07 00:58:59;;;;;;;4.17;2.73;;;21.60;99.90;;;;;;5073676;28;20435;-56
2022/09/07 01:01:28;;;;;;;3.57;2.93;;;21.70;99.90;;;;;;5073431;28;21021;-56
2022/09/07 01:03:59;;;;;;;5.70;2.70;;;21.70;99.90;;;;;;5073135;28;20527;-56
2022/09/07 01:06:29;;;;;;;3.93;2.90;;;21.80;99.90;;;;;;5073294;28;20462;-56
2022/09/07 01:09:02;;;;;;;6.03;3.30;;;21.70;99.90;;;;;;5073485;28;20449;-58
2022/09/07 01:11:31;;;;;;;3.90;2.73;;;21.60;99.90;;;;;;5072699;28;20575;-56
2022/09/07 01:13:59;;;;;;;6.83;2.80;;;21.60;99.90;;;;;;5073213;28;20484;-57
2022/09/07 01:16:41;;;;;;;5.23;2.60;;;21.70;99.90;;;;;;5073571;28;20440;-58
2022/09/07 01:19:30;;;;;;;3.57;2.93;;;21.60;99.90;;;;;;5072570;28;20433;-58
2022/09/07 01:22:07;;;;;;;4.27;2.37;;;21.60;99.90;;;;;;5073314;28;20799;-58
2022/09/07 01:24:57;;;;;;;3.30;2.50;;;21.60;99.90;;;;;;5073281;28;20504;-57
2022/09/07 01:28:04;;;;;;;4.73;3.57;;;21.80;99.90;;;;;;5073094;28;20519;-56
2022/09/07 01:30:36;;;;;;;4.83;3.07;;;21.80;99.90;;;;;;5072911;28;20464;-57
2022/09/07 01:33:31;;;;;;;2.50;2.30;;;21.70;99.90;;;;;;5073299;28;20436;-57
2022/09/07 01:36:11;;;;;;;5.40;2.60;;;21.70;99.90;;;;;;5073361;28;20532;-57
2022/09/07 01:38:42;;;;;;;3.13;2.93;;;21.70;99.90;;;;;;5073017;28;20523;-56
2022/09/07 01:41:13;;;;;;;3.00;2.57;;;21.60;99.90;;;;;;5073466;28;20511;-57
2022/09/07 01:43:46;;;;;;;4.60;3.00;;;21.60;99.90;;;;;;5072884;28;20408;-57
2022/09/07 01:46:19;;;;;;;6.63;2.87;;;21.80;99.90;;;;;;5072793;28;20420;-56
2022/09/07 01:48:49;;;;;;;6.50;2.60;;;21.90;99.90;;;;;;5072604;28;20590;-57
2022/09/07 01:51:18;;;;;;;4.07;2.60;;;21.90;99.90;;;;;;5072820;28;20479;-56
2022/09/07 01:53:50;;;;;;;4.50;2.60;;;22.10;99.90;;;;;;5072913;28;20451;-58
2022/09/07 01:56:23;;;;;;;3.80;2.60;;;22.00;99.90;;;;;;5072692;28;20439;-57
2022/09/07 01:58:55;;;;;;;3.03;2.73;;;22.00;99.90;;;;;;5073078;28;20504;-57
2022/09/07 02:01:26;;;;;;;7.07;2.80;;;21.90;99.90;;;;;;5072687;28;21026;-57
2022/09/07 02:03:59;;;;;;;4.33;3.30;;;21.90;99.90;;;;;;5072817;28;20432;-57
2022/09/07 02:06:32;;;;;;;3.67;3.00;;;21.80;99.90;;;;;;5072720;28;20488;-57
2022/09/07 02:09:03;;;;;;;6.83;3.17;;;21.80;99.90;;;;;;5072503;28;20486;-56
2022/09/07 02:11:36;;;;;;;4.40;3.00;;;21.70;99.90;;;;;;5072590;28;20492;-56
2022/09/07 02:14:08;;;;;;;5.13;2.93;;;21.60;99.90;;;;;;5072685;28;20432;-58
2022/09/07 02:16:42;;;;;;;3.87;2.90;;;21.70;99.90;;;;;;5072417;28;20975;-57
2022/09/07 02:19:13;;;;;;;3.13;2.60;;;21.70;99.90;;;;;;5072704;28;20443;-57
2022/09/07 02:21:45;;;;;;;5.10;3.00;;;21.80;99.90;;;;;;5072798;28;20518;-57
2022/09/07 02:24:18;;;;;;;3.37;3.07;;;21.80;99.90;;;;;;5072812;28;20515;-56
2022/09/07 02:26:50;;;;;;;7.67;2.80;;;22.00;99.90;;;;;;5072730;28;20434;-56
2022/09/07 02:29:18;;;;;;;3.17;2.87;;;21.80;99.90;;;;;;5072711;28;20887;-58
2022/09/07 02:31:46;;;;;;;5.50;3.00;;;21.90;99.90;;;;;;5075911;28;20563;-57
2022/09/07 02:34:13;;;;;;;4.53;2.73;;;21.80;99.90;;;;;;5076151;28;20800;-57
2022/09/07 02:36:45;;;;;;;3.17;2.73;;;21.90;99.90;;;;;;5076039;28;20452;-56
2022/09/07 02:39:12;;;;;;;4.93;3.30;;;21.90;99.90;;;;;;5075967;28;20439;-56
2022/09/07 02:41:42;;;;;;;3.33;2.50;;;21.90;99.90;;;;;;5075879;28;20472;-56
2022/09/07 02:44:13;;;;;;;9.80;3.20;;;22.00;99.90;;;;;;5075900;28;20819;-56
2022/09/07 02:47:00;;;;;;;3.83;2.47;;;22.10;99.90;;;;;;5076073;28;20834;-58
2022/09/07 02:49:42;;;;;;;5.07;2.70;;;22.30;99.90;;;;;;5075474;28;20480;-56
2022/09/07 02:52:16;;;;;;;4.10;3.10;;;22.50;99.90;;;;;;5075490;28;20838;-57
2022/09/07 02:54:58;;;;;;;4.97;3.20;;;22.00;99.90;;;;;;5075941;28;20452;-58
2022/09/07 02:57:33;;;;;;;5.00;3.67;;;22.10;99.90;;;;;;5075640;28;20464;-56
2022/09/07 03:00:06;;;;;;;5.20;3.30;;;21.90;99.90;;;;;;5075752;28;20511;-56
2022/09/07 03:02:44;;;;;;;3.77;3.00;;;21.90;99.90;;;;;;5075495;28;20461;-56
2022/09/07 03:05:18;;;;;;;3.10;2.90;;;21.90;99.90;;;;;;5075274;28;20817;-56
2022/09/07 03:07:51;;;;;;;4.43;3.37;;;21.90;99.90;;;;;;5075557;28;20433;-56
2022/09/07 03:10:18;;;;;;;4.17;3.00;;;21.90;99.90;;;;;;5075600;28;20443;-56
2022/09/07 03:12:48;;;;;;;7.40;3.87;;;22.00;99.90;;;;;;5075564;28;20480;-57
2022/09/07 03:15:17;;;;;;;3.53;3.20;;;21.90;99.90;;;;;;5075150;28;20436;-57
2022/09/07 03:17:46;;;;;;;6.03;3.40;;;21.60;99.90;;;;;;5075350;28;20470;-57
2022/09/07 03:20:15;;;;;;;3.13;2.83;;;21.60;99.90;;;;;;5075489;28;20535;-57
2022/09/07 03:22:42;;;;;;;3.50;3.20;;;21.70;99.90;;;;;;5075060;28;20472;-57
2022/09/07 03:25:10;;;;;;;4.07;3.33;;;21.80;99.90;;;;;;5075219;28;20452;-56
2022/09/07 03:27:38;;;;;;;5.67;3.90;;;21.70;99.90;;;;;;5075063;28;20943;-57
2022/09/07 03:30:06;;;;;;;11.67;3.80;;;21.60;99.90;;;;;;5075098;28;20449;-58
2022/09/07 03:32:35;;;;;;;3.43;3.10;;;21.50;99.90;;;;;;5074616;28;20522;-56
2022/09/07 03:35:06;;;;;;;6.53;3.50;;;21.60;99.90;;;;;;5074814;28;20540;-57
2022/09/07 03:37:36;;;;;;;4.90;3.40;;;21.70;99.90;;;;;;5075022;28;20531;-57
2022/09/07 03:40:03;;;;;;;4.07;3.67;;;21.70;99.90;;;;;;5074553;28;20449;-57
2022/09/07 03:42:31;;;;;;;5.77;3.20;;;21.70;99.90;;;;;;5074103;28;20511;-57
2022/09/07 03:44:58;;;;;;;5.50;3.10;;;21.50;99.90;;;;;;5074921;28;20445;-58
2022/09/07 03:47:25;;;;;;;9.67;4.10;;;21.40;99.90;;;;;;5074772;28;20531;-56
2022/09/07 03:49:53;;;;;;;7.33;4.10;;;21.30;99.90;;;;;;5074238;28;20482;-56
2022/09/07 03:52:21;;;;;;;4.30;3.10;;;21.00;99.90;;;;;;5074591;28;20571;-58
2022/09/07 03:54:49;;;;;;;4.93;3.67;;;20.70;99.90;;;;;;5074561;28;20445;-56
2022/09/07 03:57:19;;;;;;;4.13;3.00;;;20.70;99.90;;;;;;5074272;28;20869;-57
2022/09/07 03:59:46;;;;;;;8.93;3.97;;;21.00;99.90;;;;;;5074542;28;20460;-56
2022/09/07 04:02:13;;;;;;;4.70;3.50;;;21.20;99.90;;;;;;5074336;28;20588;-56
2022/09/07 04:04:42;;;;;;;4.97;3.73;;;20.80;99.90;;;;;;5074240;28;20531;-58
2022/09/07 04:07:09;;;;;;;7.60;4.43;;;20.60;99.90;;;;;;5074230;28;20433;-56
2022/09/07 04:09:38;;;;;;;5.17;3.70;;;20.70;99.90;;;;;;5073950;28;20531;-56
2022/09/07 04:12:05;;;;;;;3.70;3.40;;;20.90;99.90;;;;;;5074104;28;20579;-56
2022/09/07 04:14:32;;;;;;;5.93;3.53;;;20.70;99.90;;;;;;5074017;28;20570;-56
2022/09/07 04:17:00;;;;;;;3.43;3.10;;;20.50;99.90;;;;;;5073965;28;20483;-57
2022/09/07 04:19:27;;;;;;;9.70;3.93;;;20.50;99.90;;;;;;5074039;28;20969;-58
2022/09/07 04:21:54;;;;;;;5.63;5.13;;;20.60;99.90;;;;;;5073961;28;20460;-56
2022/09/07 04:24:21;;;;;;;5.53;3.60;;;20.60;99.90;;;;;;5073889;28;20477;-58
2022/09/07 04:26:50;;;;;;;5.20;3.07;;;20.70;99.90;;;;;;5073612;28;20448;-56
2022/09/07 04:29:17;;;;;;;7.13;3.60;;;20.70;99.90;;;;;;5073631;28;20548;-56
2022/09/07 04:31:44;;;;;;;7.00;4.30;;;20.90;99.90;;;;;;5073857;28;20507;-56
2022/09/07 04:34:12;;;;;;;7.33;3.90;;;20.80;99.90;;;;;;5073797;28;20455;-56
2022/09/07 04:36:39;;;;;;;5.30;4.47;;;20.60;99.90;;;;;;5073660;28;20537;-56
2022/09/07 04:39:06;;;;;;;8.30;4.00;;;20.30;99.90;;;;;;5073982;28;20451;-56
2022/09/07 04:41:34;;;;;;;4.03;3.57;;;20.20;99.90;;;;;;5073672;28;20515;-56
2022/09/07 04:44:04;;;;;;;5.63;4.60;;;20.30;99.90;;;;;;5073326;28;20456;-57
2022/09/07 04:46:34;;;;;;;13.07;3.63;;;20.20;99.90;;;;;;5073557;28;20498;-56
2022/09/07 04:49:03;;;;;;;6.00;3.73;;;20.50;99.90;;;;;;5073413;28;21038;-56
2022/09/07 04:51:32;;;;;;;8.63;4.30;;;20.60;99.90;;;;;;5072997;28;20552;-58
2022/09/07 04:54:01;;;;;;;8.63;3.87;;;20.60;99.90;;;;;;5072547;28;20803;-57
2022/09/07 04:56:29;;;;;;;6.37;3.87;;;20.40;99.90;;;;;;5073595;28;20501;-56
2022/09/07 04:58:56;;;;;;;6.23;4.10;;;20.70;99.90;;;;;;5073425;28;20875;-56
2022/09/07 05:01:25;;;;;;;4.40;4.00;;;20.70;99.90;;;;;;5073329;28;20479;-56
2022/09/07 05:03:53;;;;;;;5.50;3.63;;;20.50;99.90;;;;;;5073736;28;20878;-57
2022/09/07 05:06:22;;;;;;;5.10;3.43;;;20.50;99.90;;;;;;5073034;28;20872;-56
2022/09/07 05:08:51;;;;;;;9.50;4.03;;;20.60;99.90;;;;;;5073340;28;20535;-56
2022/09/07 05:11:19;;;;;;;4.87;3.87;;;20.80;99.90;;;;;;5073193;28;20476;-57
2022/09/07 05:13:46;;;;;;;4.30;3.83;;;20.50;99.90;;;;;;5073226;28;20441;-56
2022/09/07 05:16:15;;;;;;;6.87;3.33;;;20.40;99.90;;;;;;5072939;28;20543;-56
2022/09/07 05:18:44;;;;;;;6.50;4.60;;;20.30;99.90;;;;;;5073151;28;20487;-56
2022/09/07 05:21:14;;;;;;;4.47;4.07;;;20.30;99.90;;;;;;5073101;28;20798;-58
2022/09/07 05:23:42;;;;;;;5.37;4.87;;;20.20;99.90;;;;;;5072723;28;20860;-57
2022/09/07 05:26:11;;;;;;;4.43;3.83;;;20.30;99.90;;;;;;5072828;28;20485;-56
2022/09/07 05:28:39;;;;;;;8.10;4.50;;;20.40;99.90;;;;;;5072792;28;20918;-57
2022/09/07 05:31:08;;;;;;;7.07;3.87;;;20.40;99.90;;;;;;5072614;28;21030;-58
2022/09/07 05:33:35;;;;;;;5.43;4.30;;;20.40;99.90;;;;;;5072544;28;20494;-57
2022/09/07 05:36:05;;;;;;;4.47;4.07;;;20.50;99.90;;;;;;5073101;28;20448;-57
2022/09/07 05:38:36;;;;;;;7.30;3.80;;;20.50;99.90;;;;;;5072871;28;20444;-57
2022/09/07 05:41:11;;;;;;;5.17;4.67;;;20.40;99.90;;;;;;5072522;28;20484;-58
2022/09/07 05:43:39;;;;;;;4.37;3.70;;;20.50;99.90;;;;;;5072370;28;20515;-58
2022/09/07 05:46:06;;;;;;;7.93;4.13;;;20.60;99.90;;;;;;5072990;28;20535;-56
2022/09/07 05:48:33;;;;;;;5.23;4.00;;;20.80;99.90;;;;;;5072578;28;20504;-56
2022/09/07 05:51:01;;;;;;;7.80;5.13;;;20.90;99.90;;;;;;5072745;28;20473;-56
2022/09/07 05:53:30;;;;;;;11.10;4.30;;;20.90;99.90;;;;;;5072443;28;20544;-57
2022/09/07 05:55:59;;;;;;;5.93;4.20;;;20.90;99.90;;;;;;5072747;28;20857;-56
2022/09/07 05:58:27;;;;;;;5.50;4.30;;;21.00;99.90;;;;;;5072818;28;20452;-56
2022/09/07 06:00:58;;;;;;;5.40;3.87;;;21.00;99.90;;;;;;5072818;28;20468;-57
2022/09/07 06:03:25;;;;;;;9.50;3.87;;;20.90;99.90;;;;;;5072372;28;20464;-58
2022/09/07 06:06:01;;;;;;;4.43;3.57;;;20.90;99.90;;;;;;5074413;28;20476;-57
2022/09/07 06:08:31;;;;;;;7.77;4.00;;;21.00;99.90;;;;;;5076549;28;20428;-56
2022/09/07 06:11:04;;;;;;;8.70;3.33;;;21.20;99.90;;;;;;5076020;28;20987;-56
2022/09/07 06:13:31;;;;;;;5.20;3.97;;;21.20;99.90;;;;;;5075732;28;20916;-57
2022/09/07 06:16:01;;;;;;;7.13;3.87;;;21.40;99.90;;;;;;5075736;28;20487;-56
2022/09/07 06:18:30;;;;;;;5.30;3.93;;;21.50;99.90;;;;;;5076155;28;20455;-58
2022/09/07 06:21:02;;;;;;;7.70;3.53;;;21.80;99.90;;;;;;5075802;28;20516;-56
2022/09/07 06:23:32;;;;;;;3.80;3.37;;;21.80;99.90;;;;;;5075871;28;20424;-57
2022/09/07 06:25:59;;;;;;;5.90;3.47;;;21.70;99.90;;;;;;5075802;28;20447;-57
2022/09/07 06:28:30;;;;;;;4.83;3.50;;;21.60;99.90;;;;;;5075878;28;20490;-57
2022/09/07 06:31:00;;;;;;;7.50;4.00;;;21.60;99.90;;;;;;5075988;28;20514;-58
2022/09/07 06:33:28;;;;;;;7.90;3.43;;;21.60;99.90;;;;;;5075762;28;20956;-57
2022/09/07 06:35:59;;;;;;;4.47;3.37;;;21.60;99.90;;;;;;5075763;28;20444;-57
2022/09/07 06:38:29;;;;;;;4.60;3.90;;;21.60;99.90;;;;;;5075999;28;20448;-58
2022/09/07 06:41:02;;;;;;;7.70;3.50;;;21.60;99.90;;;;;;5075704;28;20562;-57
2022/09/07 06:43:29;;;;;;;7.00;3.43;;;21.80;99.90;;;;;;5075118;28;20464;-57
2022/09/07 06:45:57;;;;;;;5.50;3.20;;;21.80;99.90;;;;;;5074908;28;20931;-57
2022/09/07 06:48:25;;;;;;;9.63;3.70;;;21.70;99.90;;;;;;5075537;28;20508;-57
2022/09/07 06:51:00;;;;;;;8.07;3.83;;;21.70;99.90;;;;;;5075054;28;20507;-58
2022/09/07 06:53:30;;;;;;;5.93;3.70;;;21.90;99.90;;;;;;5075186;28;20535;-57
2022/09/07 06:55:57;;;;;;;5.90;3.40;;;22.10;99.90;;;;;;5074930;28;20444;-57
2022/09/07 06:58:26;;;;;;;4.50;3.43;;;22.30;99.90;;;;;;5075246;28;20539;-58
2022/09/07 07:00:54;;;;;;;3.80;3.50;;;22.50;99.90;;;;;;5075240;28;20468;-58
2022/09/07 07:03:21;;;;;;;8.10;3.60;;;22.50;99.90;;;;;;5075012;28;20544;-58
2022/09/07 07:05:53;;;;;;;4.57;4.10;;;22.40;99.90;;;;;;5075343;28;20884;-56
2022/09/07 07:08:21;;;;;;;6.13;3.33;;;22.50;99.90;;;;;;5075051;28;20965;-57
2022/09/07 07:10:48;;;;;;;6.80;3.60;;;22.50;99.90;;;;;;5074824;28;20555;-56
2022/09/07 07:13:16;;;;;;;4.63;3.30;;;22.60;99.90;;;;;;5075032;28;20475;-58
2022/09/07 07:15:45;;;;;;;5.87;3.20;;;22.50;99.90;;;;;;5075248;28;20531;-57
2022/09/07 07:18:13;;;;;;;5.00;3.70;;;22.50;99.90;;;;;;5073769;28;20943;-57
2022/09/07 07:20:42;;;;;;;6.17;3.50;;;22.50;99.90;;;;;;5074674;28;20530;-56
2022/09/07 07:23:12;;;;;;;3.90;2.87;;;22.50;99.90;;;;;;5074987;28;20453;-58
2022/09/07 07:25:39;;;;;;;10.30;3.73;;;22.70;99.90;;;;;;5074962;28;20440;-56
2022/09/07 07:28:06;;;;;;;5.00;2.70;;;22.80;99.90;;;;;;5074628;28;20444;-56
2022/09/07 07:30:34;;;;;;;5.73;3.17;;;22.80;99.90;;;;;;5074756;28;21000;-57
2022/09/07 07:33:03;;;;;;;7.93;3.10;;;22.90;99.90;;;;;;5074323;28;20486;-57
2022/09/07 07:35:30;;;;;;;5.30;3.43;;;23.00;99.90;;;;;;5074285;28;20453;-58
2022/09/07 07:37:57;;;;;;;3.60;3.13;;;23.10;99.90;;;;;;5074870;28;20448;-58
2022/09/07 07:40:25;;;;;;;4.77;3.60;;;23.10;99.90;;;;;;5074326;28;20542;-57
2022/09/07 07:42:52;;;;;;;6.90;3.70;;;23.20;99.90;;;;;;5074647;28;20452;-58
2022/09/07 07:45:19;;;;;;;9.13;2.67;;;23.30;99.90;;;;;;5074235;28;20540;-55
2022/09/07 07:47:50;;;;;;;6.23;3.67;;;23.40;99.90;;;;;;5074084;28;20527;-58
2022/09/07 07:50:19;;;;;;;6.30;3.43;;;23.40;99.90;;;;;;5074109;28;20436;-58
2022/09/07 07:52:46;;;;;;;4.60;3.10;;;23.50;99.90;;;;;;5074022;28;20484;-57
2022/09/07 07:55:13;;;;;;;7.80;3.50;;;23.40;99.90;;;;;;5074701;28;20535;-57
2022/09/07 07:57:40;;;;;;;5.90;3.30;;;23.50;99.90;;;;;;5073959;28;20459;-57
2022/09/07 08:00:09;;;;;;;9.67;3.60;;;23.60;99.90;;;;;;5074388;28;20454;-56
2022/09/07 08:02:36;;;;;;;6.40;2.90;;;23.80;99.90;;;;;;5074340;28;20499;-56
2022/09/07 08:05:03;;;;;;;6.47;3.80;;;23.90;99.90;;;;;;5073569;28;20452;-55
2022/09/07 08:07:32;;;;;;;7.33;3.53;;;24.10;99.90;;;;;;5073882;28;20494;-55
2022/09/07 08:09:59;;;;;;;4.33;2.90;;;24.00;99.90;;;;;;5073768;28;20532;-56
2022/09/07 08:12:27;;;;;;;14.07;4.30;;;24.00;99.90;;;;;;5073977;28;20480;-56
2022/09/07 08:14:54;;;;;;;3.63;3.00;;;24.10;99.90;;;;;;5073934;28;20535;-56
2022/09/07 08:17:23;;;;;;;3.60;3.20;;;24.20;99.90;;;;;;5073938;28;20543;-55
2022/09/07 08:19:50;;;;;;;9.50;3.63;;;24.20;99.90;;;;;;5073889;28;20532;-55
2022/09/07 08:22:22;;;;;;;7.60;3.50;;;24.20;99.90;;;;;;5073870;28;20468;-55
2022/09/07 08:24:50;;;;;;;6.70;3.10;;;24.30;99.90;;;;;;5073364;28;20439;-55
2022/09/07 08:27:19;;;;;;;8.83;3.73;;;24.20;99.90;;;;;;5073791;28;20476;-55
2022/09/07 08:29:46;;;;;;;6.20;3.93;;;24.30;99.90;;;;;;5073359;28;20451;-56
2022/09/07 08:32:14;;;;;;;4.63;3.50;;;24.30;99.90;;;;;;5073679;28;20473;-56
2022/09/07 08:34:41;;;;;;;6.03;3.20;;;24.40;99.90;;;;;;5073699;28;20587;-56
2022/09/07 08:37:08;;;;;;;5.10;3.00;;;24.30;99.90;;;;;;5073360;28;20543;-56
2022/09/07 08:39:36;;;;;;;4.90;2.87;;;24.40;99.90;;;;;;5073186;28;20471;-56
2022/09/07 08:42:18;;;;;;;10.10;4.70;;;24.50;99.90;;;;;;5073469;28;20479;-56
2022/09/07 08:44:49;;;;;;;5.03;3.43;;;24.40;99.90;;;;;;5073418;28;20428;-56
2022/09/07 08:47:25;;;;;;;3.63;3.33;;;24.50;99.90;;;;;;5072579;28;20876;-55
2022/09/07 08:49:57;;;;;;;4.10;2.90;;;24.80;99.90;;;;;;5072825;28;20506;-57
2022/09/07 08:52:26;;;;;;;6.60;3.23;;;25.30;99.90;;;;;;5072960;28;20467;-57
2022/09/07 08:55:01;;;;;;;5.40;3.87;;;25.90;99.90;;;;;;5073005;28;20476;-57
2022/09/07 08:57:33;;;;;;;6.33;3.43;;;26.70;99.90;;;;;;5073394;28;20523;-57
2022/09/07 09:00:06;;;;;;;5.73;3.33;;;27.50;99.90;;;;;;5072764;28;20432;-57
2022/09/07 09:02:33;;;;;;;3.50;3.20;;;27.50;99.90;;;;;;5073099;28;20472;-57
2022/09/07 09:05:01;;;;;;;4.50;2.90;;;28.10;99.90;;;;;;5073102;28;20840;-57
2022/09/07 09:07:36;;;;;;;10.73;2.97;;;28.90;99.90;;;;;;5073231;28;20448;-58
2022/09/07 09:10:28;;;;;;;7.47;3.30;;;29.60;99.90;;;;;;5073165;28;20437;-57
2022/09/07 09:13:05;;;;;;;6.37;2.90;;;29.80;99.90;;;;;;5073345;28;20498;-57
2022/09/07 09:15:44;;;;;;;3.80;3.20;;;29.50;99.90;;;;;;5072930;28;20934;-58
2022/09/07 09:18:23;;;;;;;4.00;3.07;;;29.20;99.90;;;;;;5072780;28;20527;-58
2022/09/07 09:20:52;;;;;;;6.07;2.80;;;29.30;99.90;;;;;;5073030;28;20468;-57
2022/09/07 09:23:23;;;;;;;4.50;2.97;;;29.70;99.90;;;;;;5072916;28;20447;-57
2022/09/07 09:25:53;;;;;;;5.40;3.20;;;29.70;99.90;;;;;;5072712;28;20429;-58
2022/09/07 09:28:22;;;;;;;3.40;3.10;;;28.70;99.90;;;;;;5073045;28;20451;-57
2022/09/07 09:30:50;;;;;;;8.70;3.27;;;28.00;99.90;;;;;;5072615;28;21046;-57
2022/09/07 09:33:20;;;;;;;5.87;2.67;;;27.40;99.90;;;;;;5073074;28;20488;-58
2022/09/07 09:35:49;;;;;;;6.40;3.37;;;27.30;99.90;;;;;;5072539;28;20451;-57
2022/09/07 09:38:32;;;;;;;4.73;2.80;;;27.80;99.90;;;;;;5072457;28;20448;-57
2022/09/07 09:41:03;;;;;;;4.03;2.70;;;29.00;99.90;;;;;;5075457;28;20540;-57
2022/09/07 09:43:40;;;;;;;5.60;3.40;;;29.00;99.90;;;;;;5077141;28;20782;-57
2022/09/07 09:46:19;;;;;;;9.03;4.00;;;29.60;99.90;;;;;;5076784;28;20882;-57
2022/09/07 09:48:55;;;;;;;3.80;3.00;;;29.30;99.90;;;;;;5076281;28;21053;-57
2022/09/07 09:51:24;;;;;;;3.57;2.43;;;28.70;99.90;;;;;;5076289;28;20451;-57
2022/09/07 09:54:01;;;;;;;6.20;3.80;;;28.20;99.90;;;;;;5076180;28;21002;-57
2022/09/07 09:56:39;;;;;;;4.60;3.10;;;27.50;99.90;;;;;;5076612;28;20475;-57
2022/09/07 09:59:26;;;;;;;4.90;3.20;;;27.10;99.90;;;;;;5076881;28;20452;-57
2022/09/07 10:01:54;;;;;;;6.70;3.30;;;26.80;99.90;;;;;;5076319;28;20460;-57
2022/09/07 10:04:29;;;;;;;5.33;3.30;;;27.30;99.90;;;;;;5076049;28;20923;-57
2022/09/07 10:06:59;;;;;;;5.43;3.80;;;28.80;99.90;;;;;;5076094;28;20432;-57
2022/09/07 10:09:34;;;;;;;5.00;3.20;;;29.80;99.90;;;;;;5076244;28;20448;-58
2022/09/07 10:12:02;;;;;;;9.13;3.10;;;30.10;99.90;;;;;;5076246;28;20476;-57
2022/09/07 10:14:33;;;;;;;3.47;3.13;;;29.20;99.90;;;;;;5075803;28;20486;-57
2022/09/07 10:17:10;;;;;;;5.07;3.00;;;29.00;99.90;;;;;;5075950;28;20405;-57
2022/09/07 10:19:38;;;;;;;5.90;2.77;;;28.80;99.90;;;;;;5075753;28;20439;-58
2022/09/07 10:22:21;;;;;;;5.43;2.77;;;29.60;99.90;;;;;;5075785;28;20475;-58
2022/09/07 10:24:48;;;;;;;3.53;2.80;;;30.10;99.90;;;;;;5076145;28;20452;-58
2022/09/07 10:27:30;;;;;;;5.03;3.50;;;30.70;98.70;;;;;;5075882;28;20538;-57
2022/09/07 10:29:59;;;;;;;4.40;2.90;;;29.60;98.70;;;;;;5075865;28;20474;-59
2022/09/07 10:32:40;;;;;;;6.63;3.07;;;28.70;99.80;;;;;;5075726;28;20464;-58
2022/09/07 10:35:19;;;;;;;5.83;3.17;;;28.00;99.90;;;;;;5075941;28;20468;-58
2022/09/07 10:37:59;;;;;;;6.77;3.43;;;27.50;99.90;;;;;;5075626;28;20865;-57
2022/09/07 10:40:33;;;;;;;4.83;2.97;;;27.10;99.90;;;;;;5075562;28;20887;-58
2022/09/07 10:43:26;;;;;;;4.20;3.17;;;27.10;99.90;;;;;;5076035;28;20432;-58
2022/09/07 10:46:07;;;;;;;5.63;3.13;;;27.00;99.90;;;;;;5075780;28;20536;-57
2022/09/07 10:48:43;;;;;;;10.57;3.17;;;27.00;99.90;;;;;;5075544;28;20558;-57
2022/09/07 10:51:16;;;;;;;4.50;4.10;;;26.90;99.90;;;;;;5075227;28;20468;-57
2022/09/07 10:53:47;;;;;;;7.43;3.70;;;26.70;99.90;;;;;;5075396;28;20468;-57
2022/09/07 10:56:18;;;;;;;6.17;3.50;;;26.50;99.90;;;;;;5075536;28;20425;-58
2022/09/07 10:59:00;;;;;;;6.13;5.13;;;26.40;99.90;;;;;;5075617;28;20467;-57
2022/09/07 11:01:41;;;;;;;8.97;5.10;;;26.30;99.90;;;;;;5074994;28;20460;-57
2022/09/07 11:04:30;;;;;;;5.10;3.73;;;26.30;99.90;;;;;;5075234;28;20780;-57
2022/09/07 11:07:06;;;;;;;5.07;4.40;;;26.30;99.90;;;;;;5075342;28;20452;-57
2022/09/07 11:09:51;;;;;;;7.10;4.10;;;26.20;99.90;;;;;;5075013;28;20428;-58
2022/09/07 11:12:22;;;;;;;9.37;3.60;;;26.60;99.90;;;;;;5074805;28;20860;-57
2022/09/07 11:14:53;;;;;;;9.43;3.87;;;27.90;99.90;;;;;;5074770;28;20475;-57
2022/09/07 11:17:26;;;;;;;5.70;3.70;;;28.90;99.90;;;;;;5075175;28;20435;-58
2022/09/07 11:20:01;;;;;;;6.87;3.00;;;29.50;99.90;;;;;;5074805;28;20787;-57
2022/09/07 11:22:35;;;;;;;13.17;3.20;;;30.20;99.90;;;;;;5075146;28;20521;-57
2022/09/07 11:25:15;;;;;;;6.60;4.10;;;31.10;99.90;;;;;;5074622;28;20909;-57
2022/09/07 11:27:47;;;;;;;6.60;3.63;;;31.30;98.70;;;;;;5074935;28;20456;-58
2022/09/07 11:30:19;;;;;;;6.00;3.30;;;30.70;98.90;;;;;;5074938;28;20437;-57
2022/09/07 11:32:55;;;;;;;5.40;3.20;;;30.90;98.30;;;;;;5074788;28;20460;-57
2022/09/07 11:35:35;;;;;;;5.77;3.30;;;30.60;98.50;;;;;;5074626;28;20460;-57
2022/09/07 11:38:22;;;;;;;5.17;2.70;;;30.50;98.80;;;;;;5074817;28;20425;-58
2022/09/07 11:40:59;;;;;;;6.97;3.40;;;30.90;98.20;;;;;;5074357;28;20869;-57
2022/09/07 11:43:31;;;;;;;6.20;3.30;;;31.50;97.30;;;;;;5074631;28;20531;-57
2022/09/07 11:46:03;;;;;;;5.23;2.90;;;31.50;95.20;;;;;;5074206;28;20761;-57
2022/09/07 11:48:36;;;;;;;3.87;2.80;;;32.20;94.90;;;;;;5074006;28;20526;-57
2022/09/07 11:51:08;;;;;;;5.30;3.27;;;32.00;94.90;;;;;;5074638;28;20563;-57
2022/09/07 11:53:42;;;;;;;3.10;2.77;;;32.00;94.20;;;;;;5074268;28;20528;-58
2022/09/07 11:56:14;;;;;;;5.93;3.00;;;32.50;93.60;;;;;;5074435;28;20433;-58
2022/09/07 11:59:26;;;;;;;3.13;2.73;;;31.90;92.90;;;;;;5074180;28;20437;-58
2022/09/07 12:02:11;;;;;;;4.07;3.00;;;31.00;93.90;;;;;;5074357;28;20464;-57
2022/09/07 12:04:54;;;;;;;3.87;2.93;;;30.10;94.80;;;;;;5073751;28;20891;-58
2022/09/07 12:07:42;;;;;;;6.40;2.77;;;29.90;94.70;;;;;;5074066;28;20436;-57
2022/09/07 12:10:27;;;;;;;3.60;2.90;;;30.20;94.80;;;;;;5074274;28;20848;-57
2022/09/07 12:13:08;;;;;;;3.13;2.77;;;30.10;94.70;;;;;;5074295;28;20448;-57
2022/09/07 12:15:44;;;;;;;4.80;3.37;;;30.20;94.80;;;;;;5074001;28;20468;-57
2022/09/07 12:18:33;;;;;;;5.00;2.93;;;30.40;95.00;;;;;;5073598;28;20439;-58
2022/09/07 12:21:01;;;;;;;3.27;2.60;;;30.40;95.30;;;;;;5074084;28;20490;-58
2022/09/07 12:23:30;;;;;;;6.23;2.90;;;30.70;94.90;;;;;;5073427;28;20888;-57
2022/09/07 12:26:37;;;;;;;7.23;2.73;;;30.30;94.60;;;;;;5073560;28;20535;-58
2022/09/07 12:29:18;;;;;;;4.27;2.70;;;29.50;95.40;;;;;;5068542;28;20953;-57
2022/09/07 12:31:47;;;;;;;3.70;2.90;;;28.80;95.80;;;;;;5073292;28;20464;-57
2022/09/07 12:34:54;;;;;;;5.13;3.20;;;28.80;97.00;;;;;;5073276;28;20913;-57
2022/09/07 12:37:40;;;;;;;7.10;2.90;;;29.60;95.40;;;;;;5073384;28;20456;-57
2022/09/07 12:40:44;;;;;;;5.97;2.97;;;30.40;94.50;;;;;;5073492;28;20429;-58
2022/09/07 12:43:50;;;;;;;8.00;2.90;;;31.30;92.90;;;;;;5073630;28;20439;-57
2022/09/07 12:46:20;;;;;;;3.60;2.10;;;31.50;92.10;;;;;;5072188;28;20455;-58
2022/09/07 12:48:57;;;;;;;5.33;2.80;;;31.40;91.20;;;;;;5073181;28;20472;-58
2022/09/07 12:51:34;;;;;;;3.13;2.53;;;31.70;90.60;;;;;;5073218;28;20547;-58
2022/09/07 12:54:09;;;;;;;7.43;3.00;;;32.00;91.00;;;;;;5073505;28;20455;-58
2022/09/07 12:56:44;;;;;;;6.27;2.90;;;32.20;90.70;;;;;;5072902;28;20977;-57
2022/09/07 12:59:37;;;;;;;5.67;2.90;;;32.20;90.70;;;;;;5073323;28;20435;-57
2022/09/07 13:02:26;;;;;;;3.87;2.73;;;32.00;90.20;;;;;;5073223;28;20460;-57
2022/09/07 13:05:03;;;;;;;4.40;2.70;;;31.70;87.00;;;;;;5072862;28;20421;-57
2022/09/07 13:08:02;;;;;;;2.80;2.30;;;31.00;89.50;;;;;;5072907;28;20758;-57
2022/09/07 13:10:34;;;;;;;4.17;2.70;;;31.10;89.90;;;;;;5073212;28;20429;-57
2022/09/07 13:13:04;;;;;;;7.20;2.80;;;30.70;90.10;;;;;;5073256;28;20420;-57